createdAt,value
2023-04-03T00:00:58.843Z,5.15
2023-04-03T00:03:48.256Z,6.32
2023-04-03T00:06:42.914Z,4.43
2023-04-03T00:09:36.751Z,4.28
2023-04-03T00:12:26.272Z,4.43
2023-04-03T00:15:15.674Z,7.55
2023-04-03T00:18:05.522Z,3.70
2023-04-03T00:20:54.764Z,5.43
2023-04-03T00:23:44.039Z,4.38
2023-04-03T00:26:34.916Z,7.22
2023-04-03T00:29:24.156Z,7.10
2023-04-03T00:32:13.278Z,3.47
2023-04-03T00:35:02.983Z,4.40
2023-04-03T00:37:55.549Z,5.85
2023-04-03T00:40:47.620Z,4.57
2023-04-03T00:43:38.515Z,5.32
2023-04-03T00:46:27.701Z,5.38
2023-04-03T00:49:17.114Z,5.65
2023-04-03T00:52:07.705Z,6.25
2023-04-03T00:55:04.205Z,7.60
2023-04-03T00:57:55.630Z,5.80
2023-04-03T01:00:57.261Z,7.00
2023-04-03T01:03:46.844Z,5.80
2023-04-03T01:06:39.784Z,6.82
2023-04-03T01:09:31.853Z,5.00
2023-04-03T01:12:24.360Z,5.90
2023-04-03T01:15:16.884Z,4.10
2023-04-03T01:18:07.600Z,6.72
2023-04-03T01:21:44.312Z,7.07
2023-04-03T01:24:40.178Z,11.88
2023-04-03T01:27:31.886Z,4.95
2023-04-03T01:30:23.858Z,8.25
2023-04-03T01:33:14.411Z,7.30
2023-04-03T01:36:04.524Z,5.78
2023-04-03T01:38:55.849Z,7.05
2023-04-03T01:41:46.703Z,6.20
2023-04-03T01:44:45.874Z,4.55
2023-04-03T01:47:35.493Z,6.00
2023-04-03T01:50:26.161Z,4.65
2023-04-03T01:53:16.352Z,6.80
2023-04-03T01:56:06.455Z,5.75
2023-04-03T01:58:56.152Z,4.22
2023-04-03T02:01:46.243Z,5.90
2023-04-03T02:04:35.945Z,5.20
2023-04-03T02:07:26.642Z,5.80
2023-04-03T02:10:16.194Z,7.65
2023-04-03T02:13:05.436Z,6.15
2023-04-03T02:15:54.600Z,5.63
2023-04-03T02:18:43.767Z,10.10
2023-04-03T02:21:33.160Z,6.35
2023-04-03T02:24:24.088Z,4.10
2023-04-03T02:27:13.446Z,4.03
2023-04-03T02:30:02.656Z,5.57
2023-04-03T02:32:52.244Z,7.22
2023-04-03T02:35:42.141Z,6.25
2023-04-03T02:38:31.418Z,6.28
2023-04-03T02:41:22.146Z,9.07
2023-04-03T02:44:14.292Z,5.78
2023-04-03T02:47:03.938Z,9.05
2023-04-03T02:49:53.864Z,8.07
2023-04-03T02:52:43.092Z,7.75
2023-04-03T02:55:32.359Z,6.25
2023-04-03T02:58:23.130Z,6.70
2023-04-03T03:01:14.963Z,7.43
2023-04-03T03:04:04.605Z,7.75
2023-04-03T03:06:53.903Z,8.70
2023-04-03T03:09:43.182Z,10.40
2023-04-03T03:12:33.778Z,8.98
2023-04-03T03:15:24.421Z,10.35
2023-04-03T03:18:13.674Z,8.63
2023-04-03T03:21:04.981Z,11.40
2023-04-03T03:23:54.650Z,12.45
2023-04-03T03:26:45.092Z,9.77
2023-04-03T03:29:35.152Z,7.82
2023-04-03T03:32:27.560Z,9.88
2023-04-03T03:35:16.889Z,11.75
2023-04-03T03:38:06.255Z,11.38
2023-04-03T03:40:55.715Z,9.85
2023-04-03T03:43:46.299Z,11.45
2023-04-03T03:46:37.275Z,11.48
2023-04-03T03:49:28.537Z,16.25
2023-04-03T03:52:17.840Z,10.95
2023-04-03T03:55:08.390Z,10.85
2023-04-03T03:57:59.416Z,13.57
2023-04-03T04:00:51.225Z,9.70
2023-04-03T04:03:40.878Z,10.93
2023-04-03T04:06:33.658Z,9.73
2023-04-03T04:09:26.859Z,11.45
2023-04-03T04:12:17.013Z,11.55
2023-04-03T04:15:07.621Z,11.93
2023-04-03T04:17:58.140Z,10.10
2023-04-03T04:20:48.264Z,11.02
2023-04-03T04:23:40.842Z,12.02
2023-04-03T04:26:30.932Z,13.45
2023-04-03T04:29:20.310Z,12.00
2023-04-03T04:32:11.968Z,11.93
2023-04-03T04:35:01.548Z,12.80
2023-04-03T04:37:53.490Z,11.85
2023-04-03T04:40:44.967Z,13.57
2023-04-03T04:43:34.770Z,13.55
2023-04-03T04:46:25.036Z,12.90
2023-04-03T04:49:18.899Z,11.32
2023-04-03T04:52:08.518Z,11.88
2023-04-03T04:54:58.122Z,12.38
2023-04-03T04:57:49.083Z,18.45
2023-04-03T05:00:39.122Z,13.30
2023-04-03T05:03:28.909Z,12.50
2023-04-03T05:06:18.177Z,10.55
2023-04-03T05:09:07.739Z,14.80
2023-04-03T05:11:57.673Z,10.43
2023-04-03T05:14:51.353Z,10.17
2023-04-03T05:17:41.412Z,11.15
2023-04-03T05:20:34.951Z,13.63
2023-04-03T05:23:24.569Z,11.50
2023-04-03T05:26:17.372Z,16.80
2023-04-03T05:29:12.555Z,11.68
2023-04-03T05:34:53.228Z,11.05
2023-04-03T05:37:48.269Z,11.73
2023-04-03T05:40:39.422Z,10.82
2023-04-03T05:43:29.841Z,11.13
2023-04-03T05:46:21.903Z,13.38
2023-04-03T05:49:17.034Z,12.80
2023-04-03T05:52:06.942Z,14.25
2023-04-03T05:54:56.597Z,17.05
2023-04-03T05:57:49.152Z,14.68
2023-04-03T06:00:38.559Z,17.60
2023-04-03T06:03:29.932Z,17.17
2023-04-03T06:06:21.039Z,17.70
2023-04-03T06:09:13.219Z,19.02
2023-04-03T06:12:02.950Z,16.70
2023-04-03T06:14:53.386Z,12.18
2023-04-03T06:17:44.298Z,16.60
2023-04-03T06:20:33.706Z,18.30
2023-04-03T06:23:24.655Z,18.63
2023-04-03T06:26:13.812Z,23.58
2023-04-03T06:29:03.336Z,19.63
2023-04-03T06:31:53.093Z,19.13
2023-04-03T06:34:42.705Z,20.27
2023-04-03T06:37:32.364Z,19.48
2023-04-03T06:40:26.606Z,22.58
2023-04-03T06:43:15.850Z,20.20
2023-04-03T06:46:06.224Z,25.10
2023-04-03T06:48:56.478Z,20.08
2023-04-03T06:51:45.773Z,21.35
2023-04-03T06:54:35.782Z,21.10
2023-04-03T06:57:26.717Z,19.63
2023-04-03T07:00:17.515Z,21.05
2023-04-03T07:03:06.752Z,18.60
2023-04-03T07:05:56.465Z,22.95
2023-04-03T07:08:46.626Z,16.27
2023-04-03T07:11:35.765Z,19.77
2023-04-03T07:14:26.592Z,18.98
2023-04-03T07:17:16.050Z,20.25
2023-04-03T07:20:06.577Z,18.48
2023-04-03T07:22:55.752Z,22.42
2023-04-03T07:25:46.847Z,20.15
2023-04-03T07:28:36.074Z,17.00
2023-04-03T07:31:27.306Z,20.60
2023-04-03T07:34:16.574Z,24.05
2023-04-03T07:37:05.951Z,21.38
2023-04-03T07:39:56.172Z,18.83
2023-04-03T07:42:45.696Z,15.63
2023-04-03T07:45:38.164Z,17.27
2023-04-03T07:48:29.536Z,25.45
2023-04-03T07:51:19.118Z,19.00
2023-04-03T07:54:08.538Z,25.17
2023-04-03T07:56:58.116Z,17.80
2023-04-03T07:59:47.656Z,17.27
2023-04-03T08:02:36.836Z,17.25
2023-04-03T08:05:27.557Z,14.75
2023-04-03T08:08:21.286Z,17.27
2023-04-03T08:11:12.672Z,12.25
2023-04-03T08:14:02.784Z,17.40
2023-04-03T08:16:52.398Z,17.60
2023-04-03T08:19:41.955Z,14.35
2023-04-03T08:22:32.771Z,16.75
2023-04-03T08:25:22.170Z,15.82
2023-04-03T08:28:12.005Z,18.50
2023-04-03T08:31:07.113Z,19.58
2023-04-03T08:33:56.317Z,16.02
2023-04-03T08:36:46.308Z,18.52
2023-04-03T08:39:37.517Z,20.73
2023-04-03T08:42:44.150Z,20.63
2023-04-03T08:45:48.141Z,18.90
2023-04-03T08:48:41.551Z,19.48
2023-04-03T08:51:33.072Z,21.67
2023-04-03T08:54:34.022Z,17.98
2023-04-03T08:57:33.671Z,16.98
2023-04-03T09:00:27.810Z,20.50
2023-04-03T09:03:19.215Z,17.67
2023-04-03T09:06:16.191Z,18.15
2023-04-03T09:09:16.548Z,17.08
2023-04-03T09:12:16.046Z,19.52
2023-04-03T09:15:27.811Z,17.75
2023-04-03T09:18:27.902Z,13.15
2023-04-03T09:21:23.491Z,15.07
2023-04-03T09:24:17.191Z,17.92
2023-04-03T09:27:09.663Z,17.67
2023-04-03T09:29:59.784Z,14.07
2023-04-03T09:32:53.760Z,18.70
2023-04-03T09:35:48.280Z,17.02
2023-04-03T09:38:38.200Z,16.35
2023-04-03T09:41:27.507Z,18.25
2023-04-03T09:44:28.470Z,17.33
2023-04-03T09:47:27.010Z,15.70
2023-04-03T09:50:24.359Z,21.85
2023-04-03T09:53:32.399Z,19.85
2023-04-03T09:56:26.910Z,18.95
2023-04-03T09:59:18.516Z,23.35
2023-04-03T10:02:37.108Z,19.95
2023-04-03T10:05:37.271Z,17.13
2023-04-03T10:08:32.558Z,16.95
2023-04-03T10:11:22.990Z,20.08
2023-04-03T10:14:19.611Z,23.30
2023-04-03T10:17:21.588Z,23.23
2023-04-03T10:20:33.625Z,21.30
2023-04-03T10:23:30.168Z,21.02
2023-04-03T10:26:30.920Z,20.65
2023-04-03T10:29:40.241Z,22.85
2023-04-03T10:32:54.707Z,17.90
2023-04-03T10:35:53.494Z,19.83
2023-04-03T10:38:53.357Z,24.00
2023-04-03T10:42:08.934Z,19.65
2023-04-03T10:45:22.996Z,27.88
2023-04-03T10:48:18.614Z,24.45
2023-04-03T10:51:28.746Z,19.13
2023-04-03T10:54:24.233Z,24.58
2023-04-03T10:57:14.542Z,21.48
2023-04-03T11:00:10.098Z,17.05
2023-04-03T11:03:05.151Z,19.55
2023-04-03T11:05:57.241Z,17.38
2023-04-03T11:08:56.182Z,17.85
2023-04-03T11:11:48.938Z,20.67
2023-04-03T11:14:40.273Z,22.00
2023-04-03T11:17:37.486Z,18.75
2023-04-03T11:20:34.449Z,25.85
2023-04-03T11:23:32.803Z,21.60
2023-04-03T11:26:34.959Z,19.92
2023-04-03T11:33:25.976Z,20.85
2023-04-03T11:36:29.510Z,20.75
2023-04-03T11:39:26.744Z,17.77
2023-04-03T11:42:26.465Z,20.73
2023-04-03T11:45:38.107Z,17.33
2023-04-03T11:48:54.315Z,23.83
2023-04-03T11:51:45.069Z,22.92
2023-04-03T11:54:51.388Z,19.70
2023-04-03T11:58:16.814Z,26.52
2023-04-03T12:01:09.837Z,25.50
2023-04-03T12:04:15.919Z,19.05
2023-04-03T12:07:20.880Z,21.58
2023-04-03T12:10:31.521Z,21.08
2023-04-03T12:13:23.092Z,19.02
2023-04-03T12:16:24.169Z,17.38
2023-04-03T12:22:29.530Z,17.27
2023-04-03T12:25:51.415Z,16.38
2023-04-03T12:28:43.349Z,17.38
2023-04-03T12:31:49.011Z,16.15
2023-04-03T12:34:57.349Z,15.90
2023-04-03T12:38:35.302Z,21.20
2023-04-03T12:41:39.860Z,21.42
2023-04-03T12:44:48.755Z,18.23
2023-04-03T12:47:41.045Z,21.23
2023-04-03T12:50:33.998Z,20.77
2023-04-03T12:53:27.304Z,17.55
2023-04-03T12:56:26.471Z,18.10
2023-04-03T12:59:19.444Z,23.40
2023-04-03T13:02:25.544Z,14.95
2023-04-03T13:05:20.279Z,15.93
2023-04-03T13:08:16.937Z,18.08
2023-04-03T13:11:11.514Z,18.75
2023-04-03T13:14:03.124Z,18.90
2023-04-03T13:16:58.201Z,13.07
2023-04-03T13:19:49.856Z,18.55
2023-04-03T13:22:44.736Z,22.10
2023-04-03T13:25:38.256Z,22.90
2023-04-03T13:28:27.635Z,25.10
2023-04-03T13:31:25.862Z,26.10
2023-04-03T13:34:19.321Z,18.52
2023-04-03T13:37:23.730Z,20.35
2023-04-03T13:40:15.132Z,22.30
2023-04-03T13:43:09.222Z,23.58
2023-04-03T13:46:28.363Z,26.35
2023-04-03T13:49:23.686Z,15.52
2023-04-03T13:52:32.059Z,25.35
2023-04-03T13:55:26.960Z,22.63
2023-04-03T13:58:26.085Z,21.30
2023-04-03T14:01:22.436Z,21.75
2023-04-03T14:04:20.799Z,18.08
2023-04-03T14:07:10.137Z,18.67
2023-04-03T14:10:00.788Z,16.77
2023-04-03T14:12:51.781Z,16.40
2023-04-03T14:15:41.255Z,12.27
2023-04-03T14:18:30.430Z,16.50
2023-04-03T14:21:22.283Z,14.50
2023-04-03T14:24:13.234Z,16.27
2023-04-03T14:27:04.376Z,14.25
2023-04-03T14:29:56.019Z,16.85
2023-04-03T14:32:45.697Z,21.05
2023-04-03T14:35:34.939Z,19.42
2023-04-03T14:38:28.290Z,10.45
2023-04-03T14:41:21.540Z,18.67
2023-04-03T14:44:12.145Z,16.23
2023-04-03T14:47:02.515Z,18.13
2023-04-03T14:49:51.830Z,16.58
2023-04-03T14:52:42.176Z,14.55
2023-04-03T14:55:31.833Z,13.60
2023-04-03T14:58:23.097Z,17.90
2023-04-03T15:01:15.303Z,16.25
2023-04-03T15:04:07.575Z,13.77
2023-04-03T15:06:56.929Z,17.75
2023-04-03T15:09:46.491Z,13.88
2023-04-03T15:12:35.759Z,13.73
2023-04-03T15:15:26.313Z,15.60
2023-04-03T15:18:24.651Z,14.13
2023-04-03T15:21:14.045Z,16.02
2023-04-03T15:24:03.523Z,11.90
2023-04-03T15:26:52.834Z,16.17
2023-04-03T15:29:43.991Z,15.50
2023-04-03T15:32:34.758Z,11.60
2023-04-03T15:35:25.686Z,12.70
2023-04-03T15:38:14.862Z,13.68
2023-04-03T15:41:04.432Z,13.38
2023-04-03T15:43:53.939Z,13.68
2023-04-03T15:46:43.346Z,13.30
2023-04-03T15:49:35.034Z,14.13
2023-04-03T15:52:25.666Z,11.90
2023-04-03T15:55:14.940Z,15.70
2023-04-03T15:58:04.260Z,10.40
2023-04-03T16:00:53.790Z,13.30
2023-04-03T16:03:46.363Z,10.57
2023-04-03T16:06:36.055Z,15.77
2023-04-03T16:09:26.827Z,10.52
2023-04-03T16:12:16.474Z,8.77
2023-04-03T16:15:08.026Z,12.05
2023-04-03T16:17:57.570Z,12.38
2023-04-03T16:20:46.825Z,14.20
2023-04-03T16:23:36.169Z,10.68
2023-04-03T16:26:27.484Z,13.43
2023-04-03T16:29:17.059Z,10.43
2023-04-03T16:32:06.901Z,16.45
2023-04-03T16:34:56.178Z,19.15
2023-04-03T16:37:45.576Z,14.32
2023-04-03T16:40:35.739Z,12.10
2023-04-03T16:43:26.356Z,13.02
2023-04-03T16:46:15.732Z,12.85
2023-04-03T16:49:05.119Z,15.55
2023-04-03T16:51:54.445Z,15.60
2023-04-03T16:54:43.731Z,18.77
2023-04-03T16:57:33.081Z,12.55
2023-04-03T17:00:24.243Z,11.88
2023-04-03T17:03:13.504Z,12.48
2023-04-03T17:06:02.886Z,16.48
2023-04-03T17:08:53.877Z,13.10
2023-04-03T17:11:49.441Z,15.82
2023-04-03T17:14:38.858Z,16.58
2023-04-03T17:17:29.588Z,13.90
2023-04-03T17:20:19.024Z,12.43
2023-04-03T17:23:08.563Z,16.88
2023-04-03T17:25:57.940Z,13.90
2023-04-03T17:28:47.230Z,12.52
2023-04-03T17:31:37.213Z,12.77
2023-04-03T17:34:27.882Z,15.25
2023-04-03T17:37:17.194Z,14.68
2023-04-03T17:40:08.141Z,17.00
2023-04-03T17:42:57.316Z,16.30
2023-04-03T17:45:46.622Z,18.73
2023-04-03T17:48:37.790Z,21.58
2023-04-03T17:51:29.097Z,14.43
2023-04-03T17:54:18.648Z,18.92
2023-04-03T17:57:08.963Z,21.38
2023-04-03T17:59:58.307Z,23.05
2023-04-03T18:02:47.791Z,20.40
2023-04-03T18:05:39.865Z,21.30
2023-04-03T18:08:31.170Z,21.23
2023-04-03T18:11:22.187Z,17.13
2023-04-03T18:14:12.334Z,27.35
2023-04-03T18:17:01.881Z,20.95
2023-04-03T18:19:51.722Z,28.08
2023-04-03T18:22:40.975Z,24.83
2023-04-03T18:28:22.896Z,21.45
2023-04-03T18:31:16.180Z,19.92
2023-04-03T18:34:05.538Z,23.10
2023-04-03T18:36:54.712Z,26.38
2023-04-03T18:39:44.496Z,24.30
2023-04-03T18:42:35.258Z,20.02
2023-04-03T18:45:25.458Z,28.27
2023-04-03T18:48:14.702Z,19.60
2023-04-03T18:51:04.118Z,21.58
2023-04-03T18:53:53.522Z,25.75
2023-04-03T18:56:42.714Z,17.60
2023-04-03T18:59:33.531Z,26.10
2023-04-03T19:02:25.933Z,22.58
2023-04-03T19:05:17.722Z,36.85
2023-04-03T19:08:07.206Z,30.27
2023-04-03T19:10:56.466Z,25.70
2023-04-03T19:14:04.438Z,20.00
2023-04-03T19:16:58.044Z,33.13
2023-04-03T19:19:47.383Z,40.10
2023-04-03T19:22:36.737Z,35.92
2023-04-03T19:25:26.023Z,39.40
2023-04-03T19:28:15.702Z,38.78
2023-04-03T19:31:05.069Z,39.65
2023-04-03T19:33:56.125Z,41.50
2023-04-03T19:36:45.880Z,40.50
2023-04-03T19:39:35.632Z,38.47
2023-04-03T19:42:24.894Z,42.50
2023-04-03T19:45:18.140Z,44.33
2023-04-03T19:48:08.166Z,37.50
2023-04-03T19:50:59.264Z,44.15
2023-04-03T19:53:49.643Z,39.17
2023-04-03T19:56:38.908Z,34.13
2023-04-03T19:59:28.343Z,39.92
2023-04-03T20:02:18.899Z,32.88
2023-04-03T20:05:09.520Z,38.42
2023-04-03T20:08:00.176Z,32.85
2023-04-03T20:10:49.564Z,32.75
2023-04-03T20:13:38.901Z,32.60
2023-04-03T20:16:28.234Z,42.15
2023-04-03T20:19:17.796Z,31.33
2023-04-03T20:22:07.299Z,58.25
2023-04-03T20:25:05.181Z,59.67
2023-04-03T20:27:55.427Z,46.28
2023-04-03T20:30:49.997Z,54.65
2023-04-03T20:33:39.210Z,50.72
2023-04-03T20:36:29.655Z,45.22
2023-04-03T20:39:20.874Z,47.30
2023-04-03T20:42:11.541Z,39.30
2023-04-03T20:45:00.759Z,29.13
2023-04-03T20:47:51.578Z,33.42
2023-04-03T20:50:41.464Z,33.22
2023-04-03T20:53:30.843Z,36.13
2023-04-03T20:56:20.113Z,30.85
2023-04-03T20:59:11.807Z,40.33
2023-04-03T21:02:01.013Z,48.47
2023-04-03T21:04:54.806Z,48.03
2023-04-03T21:08:40.345Z,33.90
2023-04-03T21:12:25.506Z,31.70
2023-04-03T21:15:48.973Z,31.30
2023-04-03T21:19:03.583Z,37.70
2023-04-03T21:21:53.589Z,30.52
2023-04-03T21:24:43.138Z,36.72
2023-04-03T21:27:32.343Z,32.20
2023-04-03T21:30:21.626Z,30.25
2023-04-03T21:33:12.948Z,27.08
2023-04-03T21:36:03.954Z,29.48
2023-04-03T21:38:58.081Z,27.35
2023-04-03T21:41:47.241Z,32.33
2023-04-03T21:44:36.393Z,24.63
2023-04-03T21:47:25.666Z,27.92
2023-04-03T21:50:15.659Z,31.52
2023-04-03T21:53:06.196Z,29.13
2023-04-03T21:55:55.854Z,34.40
2023-04-03T21:58:45.647Z,30.15
2023-04-03T22:01:35.185Z,32.22
2023-04-03T22:04:26.813Z,24.58
2023-04-03T22:07:16.394Z,49.67
2023-04-03T22:10:08.597Z,46.50
2023-04-03T22:12:58.081Z,23.52
2023-04-03T22:15:48.915Z,27.50
2023-04-03T22:18:38.739Z,29.92
2023-04-03T22:21:28.171Z,23.98
2023-04-03T22:24:19.467Z,25.05
2023-04-03T22:27:10.521Z,27.52
2023-04-03T22:30:00.052Z,33.78
2023-04-03T22:32:50.005Z,27.33
2023-04-03T22:35:48.086Z,25.45
2023-04-03T22:38:39.001Z,29.05
2023-04-03T22:41:28.721Z,35.17
2023-04-03T22:44:19.640Z,32.72
2023-04-03T22:47:09.135Z,28.58
2023-04-03T22:49:58.672Z,31.60
2023-04-03T22:52:48.939Z,36.88
2023-04-03T22:55:38.994Z,25.65
2023-04-03T22:58:29.143Z,30.05
2023-04-03T23:01:20.680Z,30.30
2023-04-03T23:04:10.210Z,27.90
2023-04-03T23:07:00.201Z,25.73
2023-04-03T23:09:49.816Z,26.98
2023-04-03T23:12:39.672Z,22.40
2023-04-03T23:15:29.552Z,27.13
2023-04-03T23:18:20.644Z,32.13
2023-04-03T23:21:10.771Z,22.35
2023-04-03T23:24:00.566Z,29.10
2023-04-03T23:26:50.112Z,23.77
2023-04-03T23:29:42.241Z,22.05
2023-04-03T23:32:32.011Z,24.55
2023-04-03T23:35:23.655Z,21.52
2023-04-03T23:38:13.209Z,17.55
2023-04-03T23:41:02.517Z,19.33
2023-04-03T23:43:52.039Z,20.08
2023-04-03T23:46:42.002Z,19.80
2023-04-03T23:49:32.288Z,16.90
2023-04-03T23:52:22.831Z,25.02
2023-04-03T23:55:11.960Z,17.20
2023-04-03T23:58:01.839Z,20.55
